Time;durP1;ratioP1;P1;durP2;ratioP2;P2;SDS_P1;SDS_P2;PMS_P1;PMS_P2;Temp;Humidity;BMP_temperature;BMP_pressure;BME280_temperature;BME280_humidity;BME280_pressure;Samples;Min_cycle;Max_cycle;Signal;HPM_P1;HPM_P2
2021/12/10 00:00:38;;;;;;;;;;;;;;;2.53;99.62;99821.84;5093884;28;19973;-35
2021/12/10 00:03:06;;;;;;;;;;;;;;;2.55;99.99;99827.84;5094753;28;20007;-35
2021/12/10 00:05:34;;;;;;;;;;;;;;;2.60;99.78;99814.69;5094667;28;19923;-35
2021/12/10 00:08:00;;;;;;;;;;;;;;;2.62;99.58;99811.81;5094674;28;19912;-35
2021/12/10 00:10:30;;;;;;;;;;;;;;;2.61;99.59;99805.66;5075486;28;19916;-35
2021/12/10 00:12:55;;;;;;;;;;;;;;;2.63;100.00;99800.09;5094221;28;20232;-35
2021/12/10 00:15:22;;;;;;;;;;;;;;;2.64;99.28;99791.91;5093701;28;19931;-35
2021/12/10 00:17:48;;;;;;;;;;;;;;;2.69;99.43;99792.13;5094066;28;19912;-35
2021/12/10 00:20:14;;;;;;;;;;;;;;;2.70;99.52;99780.41;5093838;28;20252;-35
2021/12/10 00:22:42;;;;;;;;;;;;;;;2.72;99.24;99782.88;5093800;28;19912;-35
2021/12/10 00:25:16;;;;;;;;;;;;;;;2.71;99.18;99766.03;5093735;28;19923;-35
2021/12/10 00:27:41;;;;;;;;;;;;;;;2.71;98.63;99766.03;5093798;28;19916;-35
2021/12/10 00:30:27;;;;;;;;;;;;;;;2.73;98.62;99758.66;5094524;28;19973;-35
2021/12/10 00:33:09;;;;;;;;;;;;;;;2.76;98.67;99766.22;5093395;28;20375;-35
2021/12/10 00:35:35;;;;;;;;;;;;;;;2.75;98.09;99753.91;5093934;28;20327;-35
2021/12/10 00:38:00;;;;;;;;;;;;;;;2.78;98.46;99732.16;5093261;28;19963;-35
2021/12/10 00:40:26;;;;;;;;;;;;;;;2.80;97.85;99730.09;5094059;28;19916;-35
2021/12/10 00:42:52;;;;;;;;;;;;;;;2.84;97.88;99731.31;5094090;28;19955;-35
2021/12/10 00:45:19;;;;;;;;;;;;;;;2.84;98.06;99723.31;5093536;28;20395;-35
2021/12/10 00:47:44;;;;;;;;;;;;;;;2.84;97.54;99720.63;5093881;28;19919;-35
2021/12/10 00:50:12;;;;;;;;;;;;;;;2.87;97.38;99724.72;5093826;28;20271;-35
2021/12/10 00:52:37;;;;;;;;;;;;;;;2.86;97.09;99706.25;5092929;28;20010;-36
2021/12/10 00:55:03;;;;;;;;;;;;;;;2.86;96.99;99706.25;5093496;28;19963;-36
2021/12/10 00:57:28;;;;;;;;;;;;;;;2.85;96.97;99692.09;5093514;28;20298;-35
2021/12/10 00:59:54;;;;;;;;;;;;;;;2.81;96.43;99689.00;5093613;28;20007;-36
2021/12/10 01:02:21;;;;;;;;;;;;;;;2.82;96.30;99690.63;5093313;28;19912;-36
2021/12/10 01:04:48;;;;;;;;;;;;;;;2.79;96.21;99677.72;5092975;28;19915;-35
2021/12/10 01:07:16;;;;;;;;;;;;;;;2.76;96.31;99678.13;5093318;28;19912;-36
2021/12/10 01:09:43;;;;;;;;;;;;;;;2.75;96.63;99660.47;5093117;28;19912;-36
2021/12/10 01:12:10;;;;;;;;;;;;;;;2.72;96.11;99662.72;5093277;28;19965;-36
2021/12/10 01:15:19;;;;;;;;;;;;;;;2.72;96.17;99646.72;5093292;28;20392;-36
2021/12/10 01:25:53;;;;;;;;;;;;;;;2.67;96.08;99615.31;5097800;28;19919;-35
2021/12/10 01:28:18;;;;;;;;;;;;;;;2.62;95.89;99611.63;5097403;28;19912;-36
2021/12/10 01:30:44;;;;;;;;;;;;;;;2.56;95.85;99602.63;5096765;28;19988;-36
2021/12/10 01:33:11;;;;;;;;;;;;;;;2.54;96.26;99599.34;5096762;28;19912;-36
2021/12/10 01:35:41;;;;;;;;;;;;;;;2.47;96.00;99601.19;5097792;28;19926;-36
2021/12/10 01:38:07;;;;;;;;;;;;;;;2.46;96.50;99599.56;5096846;28;20279;-36
2021/12/10 01:40:35;;;;;;;;;;;;;;;2.46;96.64;99594.22;5096756;28;20232;-36
2021/12/10 01:43:06;;;;;;;;;;;;;;;2.43;96.65;99581.28;5097516;28;19912;-36
2021/12/10 01:45:33;;;;;;;;;;;;;;;2.38;96.69;99573.91;5097305;28;19912;-36
2021/12/10 01:48:10;;;;;;;;;;;;;;;2.38;97.03;99570.44;5096811;28;19965;-36
2021/12/10 01:50:36;;;;;;;;;;;;;;;2.41;96.70;99567.34;5096737;28;19919;-36
2021/12/10 01:53:04;;;;;;;;;;;;;;;2.40;96.75;99568.38;5096504;28;20268;-36
2021/12/10 01:55:30;;;;;;;;;;;;;;;2.41;97.13;99564.69;5096586;28;19916;-35
2021/12/10 01:57:56;;;;;;;;;;;;;;;2.37;97.03;99560.78;5096563;28;19916;-36
2021/12/10 02:00:23;;;;;;;;;;;;;;;2.31;97.05;99560.59;5096871;28;19919;-35
2021/12/10 02:02:49;;;;;;;;;;;;;;;2.30;97.03;99561.63;5096531;28;20291;-36
2021/12/10 02:05:16;;;;;;;;;;;;;;;2.27;96.96;99564.69;5097588;28;20245;-35
2021/12/10 02:07:41;;;;;;;;;;;;;;;2.22;96.73;99550.34;5097043;28;19911;-36
2021/12/10 02:10:07;;;;;;;;;;;;;;;2.22;97.00;99556.50;5096393;28;20362;-36
2021/12/10 02:12:33;;;;;;;;;;;;;;;2.23;96.76;99539.47;5096271;28;19915;-36
2021/12/10 02:15:01;;;;;;;;;;;;;;;2.22;96.75;99529.84;5078508;28;20379;-36
2021/12/10 02:17:28;;;;;;;;;;;;;;;2.21;97.26;99522.88;5095845;28;19923;-35
2021/12/10 02:19:54;;;;;;;;;;;;;;;2.18;96.96;99517.94;5096598;28;19912;-36
2021/12/10 02:22:19;;;;;;;;;;;;;;;2.19;97.15;99516.09;5096201;28;20260;-36
2021/12/10 02:24:45;;;;;;;;;;;;;;;2.20;97.06;99515.91;5096171;28;19920;-36
2021/12/10 02:27:10;;;;;;;;;;;;;;;2.22;97.30;99507.69;5096287;28;19985;-36
2021/12/10 02:29:37;;;;;;;;;;;;;;;2.23;97.14;99498.63;5096270;28;19924;-36
2021/12/10 02:32:03;;;;;;;;;;;;;;;2.22;96.77;99497.00;5095188;28;19960;-36
2021/12/10 02:34:29;;;;;;;;;;;;;;;2.22;96.93;99489.81;5096140;28;19919;-35
2021/12/10 02:36:54;;;;;;;;;;;;;;;2.23;96.89;99482.63;5095404;28;20359;-35
2021/12/10 02:39:21;;;;;;;;;;;;;;;2.26;96.82;99466.22;5095834;28;19912;-36
2021/12/10 02:41:47;;;;;;;;;;;;;;;2.24;96.84;99474.41;5095997;28;19923;-36
2021/12/10 02:44:14;;;;;;;;;;;;;;;2.22;96.77;99463.16;5095934;28;19912;-36
2021/12/10 02:46:39;;;;;;;;;;;;;;;2.23;96.89;99456.78;5096147;28;19912;-36
2021/12/10 02:49:05;;;;;;;;;;;;;;;2.25;96.77;99452.06;5095339;28;19976;-35
2021/12/10 02:51:32;;;;;;;;;;;;;;;2.21;96.46;99447.38;5095868;28;19948;-35
2021/12/10 02:53:57;;;;;;;;;;;;;;;2.25;96.71;99445.91;5095840;28;19923;-35
2021/12/10 02:56:23;;;;;;;;;;;;;;;2.27;96.71;99442.00;5095525;28;20306;-35
2021/12/10 02:58:53;;;;;;;;;;;;;;;2.29;96.60;99441.78;5095308;28;20382;-35
2021/12/10 03:01:30;;;;;;;;;;;;;;;2.30;96.46;99440.78;5095843;28;19915;-35
2021/12/10 03:03:56;;;;;;;;;;;;;;;2.31;96.48;99429.06;5095837;28;20271;-35
2021/12/10 03:06:22;;;;;;;;;;;;;;;2.32;96.33;99426.19;5095221;28;19919;-35
2021/12/10 03:08:49;;;;;;;;;;;;;;;2.33;96.10;99417.13;5095485;28;19918;-35
2021/12/10 03:11:16;;;;;;;;;;;;;;;2.35;96.22;99422.28;5095233;28;19912;-35
2021/12/10 03:13:42;;;;;;;;;;;;;;;2.35;95.82;99410.78;5094747;28;20393;-35
2021/12/10 03:16:07;;;;;;;;;;;;;;;2.36;96.21;99418.56;5095049;28;20022;-35
2021/12/10 03:18:33;;;;;;;;;;;;;;;2.36;95.90;99417.75;5095579;28;20297;-35
2021/12/10 03:20:58;;;;;;;;;;;;;;;2.35;95.82;99410.78;5094909;28;19951;-35
2021/12/10 03:23:24;;;;;;;;;;;;;;;2.35;95.64;99400.13;5094999;28;19919;-35
2021/12/10 03:25:49;;;;;;;;;;;;;;;2.37;96.03;99398.03;5094913;28;19912;-35
2021/12/10 03:28:14;;;;;;;;;;;;;;;2.31;95.37;99389.88;5095349;28;19955;-35
2021/12/10 03:30:42;;;;;;;;;;;;;;;2.31;95.90;99381.88;5095267;28;19912;-35
2021/12/10 03:33:08;;;;;;;;;;;;;;;2.35;95.75;99381.44;5095450;28;19919;-35
2021/12/10 03:35:35;;;;;;;;;;;;;;;2.37;95.30;99376.72;5094970;28;19995;-35
2021/12/10 03:38:03;;;;;;;;;;;;;;;2.38;95.38;99373.00;5076103;28;19912;-35
2021/12/10 03:40:28;;;;;;;;;;;;;;;2.39;95.10;99374.63;5094452;28;19912;-35
2021/12/10 03:42:58;;;;;;;;;;;;;;;2.38;95.00;99365.00;5094483;28;19919;-35
2021/12/10 03:45:24;;;;;;;;;;;;;;;2.39;95.21;99358.63;5093782;28;19919;-35
2021/12/10 03:47:49;;;;;;;;;;;;;;;2.36;94.78;99354.56;5094422;28;20048;-35
2021/12/10 03:50:21;;;;;;;;;;;;;;;2.39;95.33;99350.63;5094586;28;19916;-35
2021/12/10 03:52:46;;;;;;;;;;;;;;;2.43;94.97;99349.16;5094268;28;19915;-35
2021/12/10 03:55:13;;;;;;;;;;;;;;;2.44;94.63;99346.31;5094429;28;19991;-35
2021/12/10 03:57:39;;;;;;;;;;;;;;;2.47;94.98;99339.69;5093939;28;19919;-35
2021/12/10 04:00:05;;;;;;;;;;;;;;;2.44;94.23;99337.44;5094359;28;19912;-34
2021/12/10 04:02:30;;;;;;;;;;;;;;;2.46;94.35;99328.22;5093882;28;19911;-35
2021/12/10 04:04:55;;;;;;;;;;;;;;;2.50;94.93;99325.94;5094390;28;20274;-35
2021/12/10 04:07:22;;;;;;;;;;;;;;;2.51;94.33;99322.25;5094044;28;19919;-35
2021/12/10 04:09:49;;;;;;;;;;;;;;;2.52;94.59;99315.84;5094792;28;19919;-35
2021/12/10 04:12:14;;;;;;;;;;;;;;;2.47;93.97;99313.03;5094288;28;19927;-35
2021/12/10 04:14:41;;;;;;;;;;;;;;;2.50;94.33;99315.28;5094252;28;19916;-35
2021/12/10 04:17:07;;;;;;;;;;;;;;;2.53;94.32;99318.31;5094107;28;20294;-35
2021/12/10 04:19:34;;;;;;;;;;;;;;;2.58;94.43;99315.81;5094066;28;19912;-35
2021/12/10 04:22:00;;;;;;;;;;;;;;;2.62;94.08;99304.69;5093522;28;19966;-35
2021/12/10 04:24:27;;;;;;;;;;;;;;;2.59;94.21;99289.97;5093918;28;19916;-35
2021/12/10 04:26:53;;;;;;;;;;;;;;;2.61;94.04;99287.88;5093448;28;19919;-35
2021/12/10 04:29:20;;;;;;;;;;;;;;;2.64;94.21;99286.63;5093861;28;19912;-35
2021/12/10 04:31:46;;;;;;;;;;;;;;;2.66;94.32;99274.69;5093899;28;19920;-35
2021/12/10 04:34:12;;;;;;;;;;;;;;;2.65;93.67;99270.41;5094165;28;20310;-35
2021/12/10 04:36:37;;;;;;;;;;;;;;;2.65;93.75;99267.72;5093909;28;19912;-35
2021/12/10 04:39:03;;;;;;;;;;;;;;;2.61;93.30;99258.53;5094126;28;19915;-35
2021/12/10 04:41:28;;;;;;;;;;;;;;;2.62;93.75;99254.81;5093503;28;19912;-35
2021/12/10 04:43:54;;;;;;;;;;;;;;;2.58;93.30;99242.94;5093320;28;19919;-35
2021/12/10 04:46:19;;;;;;;;;;;;;;;2.55;93.38;99246.88;5093220;28;19919;-35
2021/12/10 04:48:49;;;;;;;;;;;;;;;2.54;93.69;99233.75;5093605;28;19912;-35
2021/12/10 04:51:15;;;;;;;;;;;;;;;2.55;93.89;99230.88;5093418;28;19952;-35
2021/12/10 04:53:41;;;;;;;;;;;;;;;2.55;94.10;99222.03;5093731;28;20302;-35
2021/12/10 04:56:06;;;;;;;;;;;;;;;2.53;93.95;99208.91;5092928;28;19912;-36
2021/12/10 04:58:32;;;;;;;;;;;;;;;2.54;93.75;99209.75;5093349;28;19916;-35
2021/12/10 05:00:57;;;;;;;;;;;;;;;2.46;93.85;99207.34;5093262;28;20310;-35
2021/12/10 05:03:23;;;;;;;;;;;;;;;2.44;93.51;99196.03;5093057;28;19912;-35
2021/12/10 05:05:48;;;;;;;;;;;;;;;2.42;93.67;99198.94;5093220;28;19912;-35
2021/12/10 05:08:14;;;;;;;;;;;;;;;2.45;93.93;99197.72;5093648;28;19912;-35
2021/12/10 05:10:40;;;;;;;;;;;;;;;2.45;93.47;99195.84;5093476;28;20010;-35
2021/12/10 05:13:05;;;;;;;;;;;;;;;2.45;94.29;99185.19;5094017;28;19982;-35
2021/12/10 05:15:31;;;;;;;;;;;;;;;2.48;94.05;99183.91;5075258;28;19912;-35
2021/12/10 05:17:57;;;;;;;;;;;;;;;2.43;93.65;99181.06;5092824;28;19919;-35
2021/12/10 05:20:25;;;;;;;;;;;;;;;2.48;93.72;99191.91;5093270;28;20272;-35
2021/12/10 05:22:50;;;;;;;;;;;;;;;2.45;92.97;99177.16;5093180;28;19995;-35
2021/12/10 05:25:17;;;;;;;;;;;;;;;2.50;93.80;99179.19;5093206;28;20066;-35
2021/12/10 05:27:43;;;;;;;;;;;;;;;2.53;92.75;99184.88;5093083;28;19911;-35
2021/12/10 05:30:11;;;;;;;;;;;;;;;2.53;93.69;99179.53;5092865;28;19912;-35
2021/12/10 05:32:36;;;;;;;;;;;;;;;2.52;93.06;99172.59;5093582;28;19916;-35
2021/12/10 05:35:02;;;;;;;;;;;;;;;2.55;92.85;99168.66;5093653;28;19912;-35
2021/12/10 05:37:27;;;;;;;;;;;;;;;2.53;92.85;99174.22;5092684;28;19994;-35
2021/12/10 05:39:52;;;;;;;;;;;;;;;2.61;93.21;99169.63;5093249;28;19915;-35
2021/12/10 05:42:18;;;;;;;;;;;;;;;2.56;93.51;99156.94;5092725;28;19912;-35
2021/12/10 05:44:43;;;;;;;;;;;;;;;2.53;93.36;99158.19;5092928;28;19912;-35
2021/12/10 05:47:08;;;;;;;;;;;;;;;2.57;94.12;99159.41;5092689;28;20298;-35
2021/12/10 05:49:34;;;;;;;;;;;;;;;2.55;94.02;99156.16;5093006;28;19911;-35
2021/12/10 05:52:00;;;;;;;;;;;;;;;2.54;93.63;99149.19;5092932;28;19912;-35
2021/12/10 05:54:25;;;;;;;;;;;;;;;2.55;93.90;99155.31;5092905;28;19927;-35
2021/12/10 05:56:50;;;;;;;;;;;;;;;2.55;93.98;99150.00;5092910;28;20327;-35
2021/12/10 05:59:16;;;;;;;;;;;;;;;2.51;92.88;99146.94;5092915;28;20359;-35
2021/12/10 06:01:41;;;;;;;;;;;;;;;2.58;93.26;99144.19;5092998;28;19969;-35
2021/12/10 06:04:07;;;;;;;;;;;;;;;2.60;93.67;99147.47;5093343;28;20315;-35
2021/12/10 06:06:33;;;;;;;;;;;;;;;2.61;93.92;99135.75;5092768;28;19918;-35
2021/12/10 06:08:59;;;;;;;;;;;;;;;2.65;93.30;99150.31;5096508;28;19912;-35
2021/12/10 06:11:25;;;;;;;;;;;;;;;2.68;92.97;99138.34;5096338;28;19966;-35
2021/12/10 06:13:51;;;;;;;;;;;;;;;2.68;92.88;99136.50;5096786;28;20363;-35
2021/12/10 06:16:16;;;;;;;;;;;;;;;2.72;92.93;99135.03;5096304;28;19912;-35
2021/12/10 06:18:42;;;;;;;;;;;;;;;2.69;92.43;99134.66;5096012;28;19919;-35
2021/12/10 06:21:07;;;;;;;;;;;;;;;2.74;93.45;99126.81;5096880;28;20375;-36
2021/12/10 06:23:32;;;;;;;;;;;;;;;2.73;92.88;99126.00;5095903;28;19951;-36
2021/12/10 06:25:58;;;;;;;;;;;;;;;2.74;93.03;99132.97;5096627;28;19965;-35
2021/12/10 06:28:23;;;;;;;;;;;;;;;2.74;92.76;99122.28;5096432;28;20012;-35
2021/12/10 06:30:50;;;;;;;;;;;;;;;2.70;92.57;99126.44;5095893;28;19957;-35
2021/12/10 06:33:16;;;;;;;;;;;;;;;2.70;92.61;99121.09;5096762;28;20028;-35
2021/12/10 06:35:46;;;;;;;;;;;;;;;2.69;92.73;99122.13;5095957;28;19957;-35
2021/12/10 06:38:12;;;;;;;;;;;;;;;2.71;92.73;99122.72;5096319;28;19966;-35
2021/12/10 06:40:39;;;;;;;;;;;;;;;2.70;92.94;99120.28;5096145;28;19912;-35
2021/12/10 06:43:04;;;;;;;;;;;;;;;2.70;92.79;99126.44;5095585;28;19919;-35
2021/12/10 06:45:30;;;;;;;;;;;;;;;2.67;92.93;99126.88;5096059;28;20348;-35
2021/12/10 06:47:58;;;;;;;;;;;;;;;2.67;92.18;99126.88;5095793;28;19969;-35
2021/12/10 06:50:25;;;;;;;;;;;;;;;2.65;92.36;99128.94;5096399;28;19970;-36
2021/12/10 06:52:51;;;;;;;;;;;;;;;2.67;92.40;99126.88;5096006;28;19947;-35
2021/12/10 06:55:16;;;;;;;;;;;;;;;2.65;92.03;99128.94;5095945;28;19963;-36
2021/12/10 06:57:42;;;;;;;;;;;;;;;2.64;92.92;99131.84;5095474;28;19912;-36
2021/12/10 07:00:09;;;;;;;;;;;;;;;2.67;92.96;99134.06;5096391;28;19957;-36
2021/12/10 07:02:34;;;;;;;;;;;;;;;2.71;92.89;99132.59;5095453;28;19912;-36
2021/12/10 07:04:59;;;;;;;;;;;;;;;2.74;93.26;99132.16;5095371;28;19912;-36
2021/12/10 07:07:25;;;;;;;;;;;;;;;2.77;92.95;99131.69;5095387;28;19916;-36
2021/12/10 07:09:50;;;;;;;;;;;;;;;2.75;92.59;99129.25;5096155;28;19912;-36
2021/12/10 07:12:16;;;;;;;;;;;;;;;2.71;92.60;99138.72;5095264;28;19955;-36
2021/12/10 07:14:43;;;;;;;;;;;;;;;2.72;92.89;99127.00;5095436;28;19912;-36
2021/12/10 07:17:08;;;;;;;;;;;;;;;2.74;93.54;99130.28;5094803;28;19912;-36
2021/12/10 07:19:33;;;;;;;;;;;;;;;2.78;92.92;99139.50;5094495;28;20395;-36
2021/12/10 07:21:58;;;;;;;;;;;;;;;2.78;93.15;99128.81;5095293;28;19959;-35
2021/12/10 07:24:24;;;;;;;;;;;;;;;2.82;93.26;99127.31;5095050;28;19958;-36
2021/12/10 07:26:49;;;;;;;;;;;;;;;2.83;92.97;99125.44;5094978;28;19912;-36
2021/12/10 07:29:15;;;;;;;;;;;;;;;2.80;92.59;99132.06;5094942;28;20020;-36
2021/12/10 07:31:42;;;;;;;;;;;;;;;2.81;93.63;99125.69;5094537;28;20379;-36
2021/12/10 07:34:08;;;;;;;;;;;;;;;2.83;93.34;99128.97;5076833;28;19912;-35
2021/12/10 07:36:33;;;;;;;;;;;;;;;2.77;92.89;99123.69;5094366;28;19912;-35
2021/12/10 07:38:59;;;;;;;;;;;;;;;2.78;93.07;99127.97;5094189;28;19923;-36
2021/12/10 07:41:25;;;;;;;;;;;;;;;2.81;92.78;99117.69;5094606;28;19919;-36
2021/12/10 07:43:50;;;;;;;;;;;;;;;2.78;92.72;99120.81;5094347;28;19912;-36
2021/12/10 07:46:16;;;;;;;;;;;;;;;2.76;92.81;99117.53;5094273;28;19919;-36
2021/12/10 07:48:42;;;;;;;;;;;;;;;2.81;93.30;99122.19;5094703;28;19912;-35
2021/12/10 07:51:22;;;;;;;;;;;;;;;2.76;92.51;99133.53;5094433;28;19912;-36
2021/12/10 07:53:48;;;;;;;;;;;;;;;2.76;92.59;99128.22;5094540;28;20262;-36
2021/12/10 07:56:15;;;;;;;;;;;;;;;2.82;93.20;99129.16;5094381;28;19931;-41
2021/12/10 07:58:42;;;;;;;;;;;;;;;2.81;92.78;99135.56;5094219;28;20364;-36
2021/12/10 08:01:09;;;;;;;;;;;;;;;2.83;92.83;99131.63;5094439;28;19912;-36
2021/12/10 08:03:34;;;;;;;;;;;;;;;2.87;93.27;99139.19;5094956;28;19916;-36
2021/12/10 08:06:00;;;;;;;;;;;;;;;2.84;92.73;99135.94;5093727;28;19919;-36
2021/12/10 08:08:25;;;;;;;;;;;;;;;2.90;92.72;99141.41;5094472;28;19916;-36
2021/12/10 08:10:51;;;;;;;;;;;;;;;2.91;93.02;99133.19;5093669;28;20026;-35
2021/12/10 08:13:17;;;;;;;;;;;;;;;2.95;92.60;99139.72;5093727;28;19948;-36
2021/12/10 08:15:42;;;;;;;;;;;;;;;2.97;92.43;99128.78;5094476;28;19912;-35
2021/12/10 08:18:08;;;;;;;;;;;;;;;2.99;92.37;99134.75;5094468;28;20007;-36
2021/12/10 08:20:34;;;;;;;;;;;;;;;2.98;92.39;99135.78;5094473;28;19959;-36
2021/12/10 08:22:59;;;;;;;;;;;;;;;2.99;91.53;99134.75;5094096;28;19955;-36
2021/12/10 08:25:26;;;;;;;;;;;;;;;3.03;92.04;99135.94;5094183;28;19966;-36
2021/12/10 08:27:52;;;;;;;;;;;;;;;3.08;92.08;99139.56;5093701;28;20394;-36
2021/12/10 08:30:18;;;;;;;;;;;;;;;3.07;91.89;99139.75;5094016;28;19949;-36
2021/12/10 08:32:45;;;;;;;;;;;;;;;3.07;91.23;99148.63;5075923;28;20220;-36
2021/12/10 08:35:12;;;;;;;;;;;;;;;3.09;92.25;99145.72;5093815;28;19912;-36
2021/12/10 08:37:38;;;;;;;;;;;;;;;3.05;90.62;99142.66;5094075;28;19958;-36
2021/12/10 08:40:05;;;;;;;;;;;;;;;3.07;91.11;99143.28;5093683;28;20372;-36
2021/12/10 08:42:30;;;;;;;;;;;;;;;3.09;90.66;99143.84;5093588;28;19919;-36
2021/12/10 08:44:56;;;;;;;;;;;;;;;3.12;91.37;99145.25;5093676;28;20015;-36
2021/12/10 08:47:21;;;;;;;;;;;;;;;3.13;91.08;99138.91;5093693;28;19959;-36
2021/12/10 08:49:46;;;;;;;;;;;;;;;3.16;90.95;99142.94;5093740;28;19919;-36
2021/12/10 08:52:12;;;;;;;;;;;;;;;3.17;91.01;99148.06;5093945;28;19919;-36
2021/12/10 08:54:38;;;;;;;;;;;;;;;3.13;90.48;99138.91;5093956;28;20292;-36
2021/12/10 08:57:04;;;;;;;;;;;;;;;3.12;90.21;99147.09;5093545;28;19912;-36
2021/12/10 08:59:30;;;;;;;;;;;;;;;3.15;91.13;99139.47;5093876;28;19916;-36
2021/12/10 09:01:57;;;;;;;;;;;;;;;3.18;90.88;99146.22;5093258;28;19978;-36
2021/12/10 09:04:23;;;;;;;;;;;;;;;3.16;91.02;99140.28;5094022;28;20002;-36
2021/12/10 09:06:51;;;;;;;;;;;;;;;3.19;91.47;99147.84;5093696;28;19919;-36
2021/12/10 09:09:18;;;;;;;;;;;;;;;3.16;91.46;99151.78;5093774;28;19916;-36
2021/12/10 09:11:46;;;;;;;;;;;;;;;3.19;91.66;99151.34;5093454;28;19936;-36
2021/12/10 09:14:12;;;;;;;;;;;;;;;3.20;91.36;99154.81;5093995;28;20368;-36
2021/12/10 09:16:37;;;;;;;;;;;;;;;3.22;91.12;99156.25;5093317;28;19966;-36
2021/12/10 09:19:05;;;;;;;;;;;;;;;3.23;90.83;99160.53;5093961;28;20014;-36
2021/12/10 09:21:32;;;;;;;;;;;;;;;3.23;90.87;99160.53;5093292;28;19919;-36
2021/12/10 09:24:03;;;;;;;;;;;;;;;3.22;90.96;99161.59;5094126;28;19912;-36
2021/12/10 09:26:29;;;;;;;;;;;;;;;3.24;90.72;99156.00;5093508;28;19912;-36
2021/12/10 09:28:56;;;;;;;;;;;;;;;3.24;90.37;99156.81;5093706;28;19919;-36
2021/12/10 09:31:24;;;;;;;;;;;;;;;3.30;91.26;99157.78;5093206;28;19951;-36
2021/12/10 09:33:50;;;;;;;;;;;;;;;3.36;91.08;99157.69;5094176;28;20272;-36
2021/12/10 09:36:15;;;;;;;;;;;;;;;3.43;91.00;99162.97;5093301;28;19923;-36
2021/12/10 09:38:41;;;;;;;;;;;;;;;3.47;91.41;99156.13;5094037;28;19931;-36
2021/12/10 09:41:07;;;;;;;;;;;;;;;3.51;90.46;99162.63;5093244;28;19912;-36
2021/12/10 09:43:33;;;;;;;;;;;;;;;3.53;90.16;99165.09;5095933;28;19912;-36
2021/12/10 09:46:00;;;;;;;;;;;;;;;3.54;90.96;99167.53;5097631;28;20008;-36
2021/12/10 09:48:26;;;;;;;;;;;;;;;3.57;90.72;99164.44;5097052;28;20014;-36
2021/12/10 09:51:24;;;;;;;;;;;;;;;3.61;90.82;99164.78;5097169;28;19957;-36
2021/12/10 09:53:51;;;;;;;;;;;;;;;3.64;90.82;99164.31;5014881;28;19917;-36
2021/12/10 09:56:17;;;;;;;;;;;;;;;3.67;90.36;99166.56;5014565;28;19913;-36
2021/12/10 09:58:42;;;;;;;;;;;;;;;3.69;88.89;99167.13;5014734;28;19929;-36
2021/12/10 10:01:09;;;;;;;;;;;;;;;3.71;88.97;99164.22;5014967;28;19917;-36
2021/12/10 10:03:37;;;;;;;;;;;;;;;3.73;89.87;99162.97;5015127;28;19932;-36
2021/12/10 10:06:03;;;;;;;;;;;;;;;3.69;88.64;99161.78;5014881;28;19939;-36
2021/12/10 10:08:28;;;;;;;;;;;;;;;3.71;88.70;99166.91;5014847;28;20004;-36
2021/12/10 10:10:59;;;;;;;;;;;;;;;3.72;89.01;99163.19;5014445;28;20289;-36
2021/12/10 10:13:27;;;;;;;;;;;;;;;3.76;90.07;99167.06;5014867;28;20378;-36
2021/12/10 10:15:56;;;;;;;;;;;;;;;3.81;89.93;99159.16;4998040;28;19920;-36
2021/12/10 10:18:22;;;;;;;;;;;;;;;3.83;89.65;99171.25;5014016;28;20053;-36
2021/12/10 10:20:49;;;;;;;;;;;;;;;3.83;89.19;99175.78;5014369;28;19959;-36
2021/12/10 10:23:15;;;;;;;;;;;;;;;3.85;89.11;99169.16;5014183;28;19913;-36
2021/12/10 10:25:43;;;;;;;;;;;;;;;3.86;88.62;99170.00;5014122;28;20047;-37
2021/12/10 10:28:11;;;;;;;;;;;;;;;3.85;88.58;99171.00;5014146;28;19913;-36
2021/12/10 10:30:38;;;;;;;;;;;;;;;3.91;88.90;99174.66;5096605;28;20330;-34
2021/12/10 10:33:06;;;;;;;;;;;;;;;3.91;88.89;99175.47;5096097;28;20270;-34
2021/12/10 10:35:35;;;;;;;;;;;;;;;3.93;89.14;99170.69;5096674;28;19919;-34
2021/12/10 10:38:00;;;;;;;;;;;;;;;3.92;88.79;99178.97;5096454;28;20272;-34
2021/12/10 10:40:28;;;;;;;;;;;;;;;3.93;88.79;99168.03;5095986;28;19912;-34
2021/12/10 10:42:54;;;;;;;;;;;;;;;3.94;88.07;99169.66;5096482;28;19959;-34
2021/12/10 10:45:23;;;;;;;;;;;;;;;3.99;89.39;99167.09;5095889;28;19912;-34
2021/12/10 10:47:48;;;;;;;;;;;;;;;4.01;88.11;99173.06;5096195;28;19912;-36
2021/12/10 10:50:28;;;;;;;;;;;;;;;3.97;87.96;99171.06;5095916;28;19958;-36
2021/12/10 10:52:56;;;;;;;;;;;;;;;3.96;88.32;99178.28;5096180;28;20327;-36
2021/12/10 10:55:24;;;;;;;;;;;;;;;3.99;88.05;99174.31;5096436;28;19920;-36
2021/12/10 10:57:58;;;;;;;;;;;;;;;3.96;88.01;99175.59;5095874;28;19969;-36
2021/12/10 11:00:29;;;;;;;;;;;;;;;4.00;88.45;99174.09;5095932;28;19912;-36
2021/12/10 11:02:59;;;;;;;;;;;;;;;4.00;88.65;99179.47;5096384;28;19918;-36
2021/12/10 11:05:24;;;;;;;;;;;;;;;3.96;87.79;99180.13;5096073;28;19912;-36
2021/12/10 11:07:53;;;;;;;;;;;;;;;3.97;88.15;99173.75;5095156;28;19919;-36
2021/12/10 11:10:26;;;;;;;;;;;;;;;3.91;87.98;99174.66;5096050;28;19919;-36
2021/12/10 11:12:52;;;;;;;;;;;;;;;3.93;88.65;99185.94;5095429;28;20340;-36
2021/12/10 11:15:17;;;;;;;;;;;;;;;3.99;89.14;99177.00;5095187;28;19943;-36
2021/12/10 11:17:49;;;;;;;;;;;;;;;3.98;88.30;99184.19;5095299;28;19919;-36
2021/12/10 11:20:17;;;;;;;;;;;;;;;3.99;88.86;99180.47;5095306;28;20264;-36
2021/12/10 11:22:46;;;;;;;;;;;;;;;3.98;89.22;99180.72;5095253;28;19912;-36
2021/12/10 11:25:13;;;;;;;;;;;;;;;4.02;89.75;99187.25;5095767;28;19912;-36
2021/12/10 11:27:41;;;;;;;;;;;;;;;4.06;89.30;99185.75;5095172;28;20294;-36
2021/12/10 11:30:07;;;;;;;;;;;;;;;4.05;87.76;99181.41;5095114;28;20008;-36
2021/12/10 11:32:34;;;;;;;;;;;;;;;4.06;88.55;99183.88;5095085;28;20042;-36
2021/12/10 11:35:14;;;;;;;;;;;;;;;4.01;88.51;99180.28;5095026;28;19951;-36
2021/12/10 11:37:48;;;;;;;;;;;;;;;4.05;88.66;99190.28;5094910;28;19915;-36
2021/12/10 11:40:34;;;;;;;;;;;;;;;4.11;89.10;99191.22;5095441;28;19912;-36
2021/12/10 11:43:18;;;;;;;;;;;;;;;4.17;88.20;99195.66;5094833;28;19912;-36
2021/12/10 11:46:04;;;;;;;;;;;;;;;4.07;87.52;99192.72;5078813;28;19912;-36
2021/12/10 11:48:31;;;;;;;;;;;;;;;4.07;87.18;99198.06;5094429;28;20001;-36
2021/12/10 11:51:07;;;;;;;;;;;;;;;4.09;87.75;99202.13;5094672;28;19912;-36
2021/12/10 11:53:38;;;;;;;;;;;;;;;4.09;86.60;99201.31;5094778;28;19943;-36
2021/12/10 11:56:09;;;;;;;;;;;;;;;4.12;87.42;99195.53;5094626;28;19919;-36
2021/12/10 11:58:34;;;;;;;;;;;;;;;4.11;86.80;99196.56;5095203;28;19918;-36
2021/12/10 12:00:59;;;;;;;;;;;;;;;4.12;87.21;99200.88;5095007;28;19912;-36
2021/12/10 12:03:30;;;;;;;;;;;;;;;4.12;87.87;99196.34;5094407;28;19923;-36
2021/12/10 12:05:56;;;;;;;;;;;;;;;4.13;87.41;99202.50;5093560;28;19959;-36
2021/12/10 12:08:21;;;;;;;;;;;;;;;4.17;87.09;99202.88;5094436;28;19943;-36
2021/12/10 12:10:51;;;;;;;;;;;;;;;4.16;86.93;99209.28;5094596;28;20014;-36
2021/12/10 12:15:48;;;;;;;;;;;;;;;4.21;87.82;99212.88;5094318;28;19912;-36
2021/12/10 12:18:34;;;;;;;;;;;;;;;4.26;88.69;99214.88;5076114;28;19998;-36
2021/12/10 12:26:32;;;;;;;;;;;;;;;4.33;87.36;99224.41;5094721;28;20001;-36
2021/12/10 12:29:09;;;;;;;;;;;;;;;4.34;87.20;99227.91;5093648;28;19912;-34
2021/12/10 12:31:53;;;;;;;;;;;;;;;4.31;85.68;99225.69;5094342;28;19913;-34
2021/12/10 12:34:18;;;;;;;;;;;;;;;4.24;85.12;99220.44;5075327;28;19966;-34
2021/12/10 12:36:49;;;;;;;;;;;;;;;4.27;86.30;99225.34;5094357;28;19912;-35
2021/12/10 12:39:25;;;;;;;;;;;;;;;4.26;85.86;99236.28;5093838;28;19911;-35
2021/12/10 12:41:50;;;;;;;;;;;;;;;4.27;86.48;99241.38;5093810;28;20002;-35
2021/12/10 12:44:24;;;;;;;;;;;;;;;4.31;86.79;99239.09;5094507;28;19962;-35
2021/12/10 12:47:18;;;;;;;;;;;;;;;4.31;87.48;99250.59;5093730;28;19989;-35
2021/12/10 12:49:47;;;;;;;;;;;;;;;4.25;85.20;99243.50;5075862;28;19912;-35
2021/12/10 12:52:14;;;;;;;;;;;;;;;4.26;87.27;99253.16;5093551;28;19939;-35
2021/12/10 12:55:00;;;;;;;;;;;;;;;4.28;86.81;99250.22;5093750;28;19947;-35
2021/12/10 12:57:35;;;;;;;;;;;;;;;4.26;86.25;99252.34;5092745;28;19920;-35
2021/12/10 13:00:03;;;;;;;;;;;;;;;4.26;86.77;99253.16;5093987;28;19916;-35
2021/12/10 13:02:28;;;;;;;;;;;;;;;4.25;86.40;99258.72;5093696;28;19958;-35
2021/12/10 13:04:53;;;;;;;;;;;;;;;4.24;86.22;99263.25;5094287;28;19912;-35
2021/12/10 13:07:20;;;;;;;;;;;;;;;4.26;87.22;99268.38;5093440;28;19912;-35
2021/12/10 13:09:53;;;;;;;;;;;;;;;4.26;86.17;99271.06;5093097;28;20360;-35
2021/12/10 13:12:34;;;;;;;;;;;;;;;4.23;86.34;99269.66;5093637;28;19942;-35
2021/12/10 13:15:01;;;;;;;;;;;;;;;4.21;87.34;99278.97;5093384;28;19915;-35